Time;durP1;ratioP1;P1;durP2;ratioP2;P2;SDS_P1;SDS_P2;PMS_P1;PMS_P2;Temp;Humidity;BMP_temperature;BMP_pressure;BME280_temperature;BME280_humidity;BME280_pressure;Samples;Min_cycle;Max_cycle;Signal;HPM_P1;HPM_P2
2021/12/31 00:00:29;;;;;;;2.53;2.33;;;12.10;99.90;;;;;;4981410;28;20458;-79
2021/12/31 00:03:16;;;;;;;4.40;2.40;;;12.30;99.90;;;;;;4983574;28;20413;-79
2021/12/31 00:06:01;;;;;;;2.50;2.30;;;12.30;99.90;;;;;;4982462;28;20455;-79
2021/12/31 00:08:45;;;;;;;2.67;2.50;;;12.40;99.90;;;;;;4982309;28;20421;-77
2021/12/31 00:11:30;;;;;;;2.20;2.00;;;12.40;99.90;;;;;;4988112;28;20457;-77
2021/12/31 00:14:16;;;;;;;5.00;2.70;;;12.40;99.90;;;;;;4993749;28;20400;-77
2021/12/31 00:17:03;;;;;;;2.17;1.97;;;12.40;99.90;;;;;;4993599;28;20445;-77
2021/12/31 00:19:49;;;;;;;2.60;2.40;;;12.40;99.90;;;;;;5001192;28;20813;-77
2021/12/31 00:25:42;;;;;;;4.57;2.57;;;12.40;99.90;;;;;;4963315;29;20409;-79
2021/12/31 00:28:27;;;;;;;3.60;2.50;;;12.30;99.90;;;;;;4952056;29;20471;-79
2021/12/31 00:31:12;;;;;;;1.97;1.77;;;12.40;99.90;;;;;;4951642;29;20562;-79
2021/12/31 00:33:56;;;;;;;7.00;2.70;;;12.40;99.90;;;;;;4965799;28;20959;-79
2021/12/31 00:36:45;;;;;;;1.93;1.83;;;12.40;99.90;;;;;;4965974;29;20439;-78
2021/12/31 00:39:31;;;;;;;2.80;2.20;;;12.40;99.90;;;;;;4952662;29;20381;-79
2021/12/31 00:42:15;;;;;;;2.70;2.50;;;12.40;99.90;;;;;;4961591;28;20385;-79
2021/12/31 00:45:00;;;;;;;1.90;1.80;;;12.20;99.90;;;;;;4899939;29;20446;-79
2021/12/31 00:47:47;;;;;;;1.60;1.50;;;12.30;99.90;;;;;;4903946;29;20416;-79
2021/12/31 00:50:32;;;;;;;3.67;2.00;;;12.40;99.90;;;;;;4917348;29;20491;-79
2021/12/31 00:53:17;;;;;;;3.30;2.47;;;12.40;99.90;;;;;;4917928;29;20413;-79
2021/12/31 00:56:01;;;;;;;2.73;2.23;;;12.50;99.90;;;;;;4914313;29;20399;-79
2021/12/31 00:58:47;;;;;;;2.33;2.10;;;12.60;99.90;;;;;;4942662;29;20446;-79
2021/12/31 01:01:35;;;;;;;2.13;2.03;;;12.60;99.90;;;;;;4956221;29;20378;-79
2021/12/31 01:04:22;;;;;;;2.60;2.40;;;12.50;99.90;;;;;;4955416;29;20436;-79
2021/12/31 01:07:07;;;;;;;2.43;2.10;;;12.40;99.90;;;;;;4963479;28;20440;-79
2021/12/31 01:09:52;;;;;;;2.33;2.07;;;12.50;99.90;;;;;;4986365;28;20454;-79
2021/12/31 01:12:37;;;;;;;3.33;2.10;;;12.50;99.90;;;;;;4986752;28;20385;-79
2021/12/31 01:18:21;;;;;;;2.20;2.10;;;12.30;99.90;;;;;;5053120;28;20500;-79
2021/12/31 01:21:05;;;;;;;2.27;2.07;;;12.50;99.90;;;;;;5039134;28;20385;-80
2021/12/31 01:23:51;;;;;;;2.67;2.47;;;12.50;99.90;;;;;;5039423;28;20407;-79
2021/12/31 01:26:36;;;;;;;2.60;2.40;;;12.50;99.90;;;;;;5038987;28;20461;-79
2021/12/31 01:29:21;;;;;;;7.13;2.63;;;12.50;99.90;;;;;;5039625;28;20466;-79
2021/12/31 01:32:10;;;;;;;4.80;2.83;;;12.30;99.90;;;;;;5019379;28;20546;-79
2021/12/31 01:34:57;;;;;;;12.90;3.20;;;12.40;99.90;;;;;;5022763;28;20491;-79
2021/12/31 01:37:43;;;;;;;4.53;2.23;;;12.40;99.90;;;;;;5024343;28;20453;-79
2021/12/31 01:40:27;;;;;;;2.80;2.53;;;12.50;99.90;;;;;;5024640;28;20426;-79
2021/12/31 01:43:13;;;;;;;2.50;2.30;;;12.50;99.90;;;;;;5024727;28;20411;-79
2021/12/31 01:46:01;;;;;;;1.97;1.87;;;12.50;99.90;;;;;;5003529;28;20953;-79
2021/12/31 01:49:01;;;;;;;4.37;2.40;;;12.50;99.90;;;;;;5025074;28;20474;-79
2021/12/31 01:51:46;;;;;;;3.67;2.57;;;12.40;99.90;;;;;;5028026;28;20465;-77
2021/12/31 01:54:31;;;;;;;2.60;2.40;;;12.40;99.90;;;;;;5033716;28;20400;-76
2021/12/31 01:57:18;;;;;;;2.47;2.27;;;12.40;99.90;;;;;;5047485;28;20392;-76
2021/12/31 02:00:03;;;;;;;5.10;3.00;;;12.50;99.90;;;;;;5018895;28;20382;-79
2021/12/31 02:02:49;;;;;;;2.80;2.60;;;12.50;99.90;;;;;;5040909;28;20418;-79
2021/12/31 02:05:33;;;;;;;3.33;3.03;;;12.50;99.90;;;;;;5054589;28;20377;-79
2021/12/31 02:08:18;;;;;;;4.33;2.53;;;12.50;99.90;;;;;;5035350;28;20375;-79
2021/12/31 02:11:02;;;;;;;2.80;2.60;;;12.50;99.90;;;;;;5046576;28;20454;-79
2021/12/31 02:13:48;;;;;;;4.30;2.43;;;12.50;99.90;;;;;;5074820;28;20394;-79
2021/12/31 02:16:33;;;;;;;2.20;2.00;;;12.50;99.90;;;;;;5061069;28;20789;-79
2021/12/31 02:19:27;;;;;;;3.17;2.97;;;12.50;99.90;;;;;;5060886;28;20417;-79
2021/12/31 02:22:11;;;;;;;2.60;2.40;;;12.50;99.90;;;;;;5055422;28;20934;-79
2021/12/31 02:25:00;;;;;;;4.97;2.83;;;12.50;99.90;;;;;;5046773;28;20422;-79
2021/12/31 02:27:44;;;;;;;2.70;2.50;;;12.50;99.90;;;;;;5060724;28;20463;-79
2021/12/31 02:30:32;;;;;;;2.57;2.20;;;12.40;99.90;;;;;;5060409;28;20441;-79
2021/12/31 02:33:18;;;;;;;3.10;2.50;;;12.30;99.90;;;;;;5046359;28;20705;-79
2021/12/31 02:36:05;;;;;;;2.67;2.10;;;12.30;99.90;;;;;;5046417;28;20385;-79
2021/12/31 02:38:50;;;;;;;2.40;2.20;;;12.30;99.90;;;;;;5060572;28;20360;-79
2021/12/31 02:41:36;;;;;;;7.13;2.57;;;12.30;99.90;;;;;;5046344;28;20397;-79
2021/12/31 02:44:21;;;;;;;2.97;2.77;;;12.40;99.90;;;;;;5060770;28;20389;-79
2021/12/31 02:47:07;;;;;;;2.40;1.77;;;12.40;99.90;;;;;;5060507;28;20462;-79
2021/12/31 02:49:54;;;;;;;2.93;2.53;;;12.40;99.90;;;;;;5062130;28;20891;-79
2021/12/31 02:52:41;;;;;;;1.90;1.80;;;12.40;99.90;;;;;;5047144;28;20474;-79
2021/12/31 02:55:30;;;;;;;3.03;2.40;;;12.40;99.90;;;;;;5033192;28;20410;-79
2021/12/31 02:58:15;;;;;;;2.57;2.27;;;12.30;99.90;;;;;;5046550;28;20429;-79
2021/12/31 03:01:02;;;;;;;8.23;2.10;;;12.30;99.90;;;;;;5062133;28;20409;-78
2021/12/31 03:03:49;;;;;;;2.43;2.30;;;12.30;99.90;;;;;;5042341;28;20486;-77
2021/12/31 03:06:34;;;;;;;2.53;2.30;;;12.30;99.90;;;;;;5001757;28;20416;-77
2021/12/31 03:09:23;;;;;;;2.17;1.97;;;12.30;99.90;;;;;;5002703;28;20427;-76
2021/12/31 03:12:11;;;;;;;2.43;2.10;;;12.40;99.90;;;;;;5016417;28;20437;-77
2021/12/31 03:14:56;;;;;;;2.00;1.90;;;12.40;99.90;;;;;;5005299;28;20386;-78
2021/12/31 03:17:44;;;;;;;2.33;2.10;;;12.40;99.90;;;;;;4990902;28;20533;-79
2021/12/31 03:20:36;;;;;;;2.33;2.13;;;12.40;99.90;;;;;;5017697;28;20389;-79
2021/12/31 03:23:22;;;;;;;2.30;1.97;;;12.30;99.90;;;;;;5005491;28;20379;-77
2021/12/31 03:26:06;;;;;;;2.83;2.23;;;12.30;99.90;;;;;;5005101;28;20841;-79
2021/12/31 03:28:52;;;;;;;2.07;1.97;;;12.30;99.90;;;;;;4976434;28;20458;-79
2021/12/31 03:31:36;;;;;;;2.53;2.30;;;12.30;99.90;;;;;;5003847;28;20518;-79
2021/12/31 03:34:22;;;;;;;9.70;2.50;;;12.30;99.90;;;;;;4980794;28;20420;-79
2021/12/31 03:37:07;;;;;;;2.30;2.10;;;12.30;99.90;;;;;;5022477;28;20384;-78
2021/12/31 03:39:53;;;;;;;2.30;2.10;;;12.30;99.90;;;;;;5058042;28;20470;-79
2021/12/31 03:42:40;;;;;;;2.43;2.10;;;12.30;99.90;;;;;;5037629;28;20382;-79
2021/12/31 03:45:26;;;;;;;3.30;2.17;;;12.20;99.90;;;;;;5036658;28;20450;-79
2021/12/31 03:48:10;;;;;;;4.07;2.60;;;12.20;99.90;;;;;;5003633;28;20491;-79
2021/12/31 03:50:56;;;;;;;2.90;2.17;;;12.30;99.90;;;;;;5003481;28;21160;-79
2021/12/31 03:53:42;;;;;;;2.10;1.90;;;12.30;99.90;;;;;;5003627;28;20527;-79
2021/12/31 03:56:31;;;;;;;3.30;2.37;;;12.30;99.90;;;;;;4989659;28;20766;-79
2021/12/31 03:59:17;;;;;;;4.83;1.70;;;12.30;99.90;;;;;;4990210;28;20856;-79
2021/12/31 04:02:01;;;;;;;2.30;2.10;;;12.30;99.90;;;;;;4970130;28;20405;-79
2021/12/31 04:04:47;;;;;;;2.00;1.80;;;12.30;99.90;;;;;;4943061;28;20915;-79
2021/12/31 04:07:32;;;;;;;2.50;2.13;;;12.30;99.90;;;;;;4955964;28;20405;-79
2021/12/31 04:10:17;;;;;;;2.43;2.00;;;12.20;99.90;;;;;;4971330;28;20421;-79
2021/12/31 04:13:01;;;;;;;2.00;1.60;;;12.30;99.90;;;;;;4943556;28;20409;-79
2021/12/31 04:15:45;;;;;;;4.63;2.10;;;12.30;99.90;;;;;;4971245;28;20384;-79
2021/12/31 04:18:30;;;;;;;2.97;2.67;;;12.20;99.90;;;;;;5001188;28;20427;-79
2021/12/31 04:21:16;;;;;;;3.80;2.40;;;12.20;99.90;;;;;;5013968;28;20438;-79
2021/12/31 04:24:14;;;;;;;1.90;1.80;;;12.30;99.90;;;;;;5028119;28;20419;-79
2021/12/31 04:26:59;;;;;;;12.33;2.50;;;12.30;99.90;;;;;;5026775;28;20386;-79
2021/12/31 04:29:50;;;;;;;3.40;2.73;;;12.10;99.90;;;;;;5026005;28;20362;-79
2021/12/31 04:32:35;;;;;;;2.97;2.43;;;12.20;99.90;;;;;;5057554;28;20738;-79
2021/12/31 04:35:20;;;;;;;3.73;2.47;;;12.20;99.90;;;;;;5068837;28;20389;-79
2021/12/31 04:38:05;;;;;;;5.90;2.63;;;12.10;99.90;;;;;;5053594;28;20394;-79
2021/12/31 04:40:50;;;;;;;3.23;2.17;;;12.10;99.90;;;;;;5052521;28;20357;-79
2021/12/31 04:43:39;;;;;;;2.90;2.70;;;12.10;99.90;;;;;;5040338;28;20398;-79
2021/12/31 04:46:24;;;;;;;2.70;2.50;;;12.10;99.90;;;;;;5008485;28;20458;-79
2021/12/31 04:49:13;;;;;;;3.57;2.90;;;12.00;99.90;;;;;;5018094;28;20414;-79
2021/12/31 04:51:58;;;;;;;3.17;2.67;;;12.00;99.90;;;;;;5018444;28;20838;-79
2021/12/31 04:54:42;;;;;;;3.30;2.83;;;12.00;99.90;;;;;;5032452;28;20433;-79
2021/12/31 04:57:27;;;;;;;3.67;2.47;;;12.00;99.90;;;;;;5032906;28;20403;-79
2021/12/31 05:00:14;;;;;;;3.30;2.80;;;12.00;99.90;;;;;;4973833;28;20466;-79
2021/12/31 05:03:09;;;;;;;2.60;2.40;;;12.00;99.90;;;;;;4987122;28;20414;-79
2021/12/31 05:05:53;;;;;;;2.60;2.40;;;12.10;99.90;;;;;;4987681;28;20422;-79
2021/12/31 05:08:39;;;;;;;2.77;2.43;;;12.10;99.90;;;;;;4942207;29;20434;-79
2021/12/31 05:11:23;;;;;;;3.00;2.80;;;12.10;99.90;;;;;;4938622;29;20898;-79
2021/12/31 05:14:08;;;;;;;3.50;3.20;;;12.10;99.90;;;;;;4966800;28;20408;-79
2021/12/31 05:16:52;;;;;;;3.27;3.07;;;12.10;99.90;;;;;;4975218;28;20401;-79
2021/12/31 05:19:37;;;;;;;2.87;2.63;;;12.10;99.90;;;;;;4974956;28;20384;-79
2021/12/31 05:22:22;;;;;;;3.03;2.83;;;12.00;99.90;;;;;;4989684;28;20431;-79
2021/12/31 05:25:07;;;;;;;2.73;2.53;;;12.00;99.90;;;;;;4988463;28;21016;-79
2021/12/31 05:27:52;;;;;;;2.53;2.33;;;12.10;99.90;;;;;;4974195;28;20952;-79
2021/12/31 05:30:38;;;;;;;3.03;2.77;;;12.10;99.90;;;;;;4988454;28;20442;-79
2021/12/31 05:33:25;;;;;;;5.43;3.30;;;12.00;99.90;;;;;;5027036;28;20386;-79
2021/12/31 05:36:10;;;;;;;8.00;2.77;;;12.10;99.90;;;;;;5011465;28;20391;-79
2021/12/31 05:38:56;;;;;;;4.27;3.23;;;12.10;99.90;;;;;;5009616;28;20443;-78
2021/12/31 05:41:45;;;;;;;3.23;3.03;;;12.00;99.90;;;;;;5050327;28;20435;-78
2021/12/31 05:44:31;;;;;;;6.03;3.60;;;12.00;99.90;;;;;;5050149;28;20455;-78
2021/12/31 05:47:20;;;;;;;7.07;3.00;;;12.00;99.90;;;;;;5035803;28;20417;-78
2021/12/31 05:50:08;;;;;;;4.63;2.60;;;12.00;99.90;;;;;;5063689;28;20410;-78
2021/12/31 05:52:56;;;;;;;3.77;3.40;;;11.90;99.90;;;;;;5049065;28;20452;-78
2021/12/31 05:55:40;;;;;;;3.20;2.90;;;11.90;99.90;;;;;;5049396;28;20395;-78
2021/12/31 05:58:28;;;;;;;5.23;3.30;;;12.00;99.90;;;;;;5036497;28;20417;-78
2021/12/31 06:01:13;;;;;;;5.00;3.87;;;11.90;99.90;;;;;;5022169;28;20407;-78
2021/12/31 06:04:04;;;;;;;5.30;3.13;;;11.90;99.90;;;;;;5021589;28;20421;-79
2021/12/31 06:06:48;;;;;;;4.80;3.20;;;11.90;99.90;;;;;;5008580;28;20487;-78
2021/12/31 06:09:35;;;;;;;3.27;2.97;;;11.90;99.90;;;;;;5022435;28;20379;-78
2021/12/31 06:12:46;;;;;;;16.70;3.93;;;11.90;99.90;;;;;;4986354;28;20448;-75
2021/12/31 06:15:33;;;;;;;9.87;3.50;;;11.90;99.90;;;;;;4986541;28;20379;-78
2021/12/31 06:18:19;;;;;;;3.70;2.73;;;11.90;99.90;;;;;;4983413;28;20388;-78
2021/12/31 06:21:04;;;;;;;3.37;3.07;;;11.90;99.90;;;;;;4938968;29;20503;-78
2021/12/31 06:23:49;;;;;;;3.00;2.70;;;11.80;99.90;;;;;;4940111;29;20407;-79
2021/12/31 06:26:35;;;;;;;7.53;3.93;;;11.80;99.90;;;;;;4939540;29;20444;-78
2021/12/31 06:29:21;;;;;;;6.97;3.40;;;11.70;99.90;;;;;;4968391;28;20433;-78
2021/12/31 06:32:12;;;;;;;4.73;3.70;;;11.80;99.90;;;;;;4957298;28;20444;-78
2021/12/31 06:34:57;;;;;;;5.80;4.00;;;11.80;99.90;;;;;;4971040;28;20444;-78
2021/12/31 06:37:41;;;;;;;4.80;4.03;;;11.70;99.90;;;;;;4946538;28;20381;-78
2021/12/31 06:40:29;;;;;;;4.03;3.60;;;11.70;99.90;;;;;;4970127;28;20782;-78
2021/12/31 06:43:15;;;;;;;3.87;3.47;;;11.70;99.90;;;;;;4931084;29;20422;-79
2021/12/31 06:46:01;;;;;;;3.10;2.73;;;11.60;99.90;;;;;;4957086;29;20446;-76
2021/12/31 06:48:48;;;;;;;6.50;3.00;;;11.70;99.90;;;;;;4974047;28;20406;-76
2021/12/31 06:51:32;;;;;;;6.30;3.30;;;11.70;99.90;;;;;;4962440;28;20451;-76
2021/12/31 06:54:18;;;;;;;5.10;3.60;;;11.70;99.90;;;;;;4982709;28;20768;-76
2021/12/31 06:57:04;;;;;;;3.40;3.20;;;11.70;99.90;;;;;;4958091;29;20377;-76
2021/12/31 06:59:48;;;;;;;14.77;3.33;;;11.60;99.90;;;;;;4921197;29;20387;-76
2021/12/31 07:02:33;;;;;;;4.57;3.47;;;11.70;99.90;;;;;;4900217;29;20419;-76
2021/12/31 07:05:18;;;;;;;5.43;4.00;;;11.70;99.90;;;;;;4901274;29;20454;-76
2021/12/31 07:08:05;;;;;;;4.53;3.47;;;11.60;99.90;;;;;;4887952;29;20979;-76
2021/12/31 07:10:50;;;;;;;3.73;3.13;;;11.60;99.90;;;;;;4862003;29;20991;-80
2021/12/31 07:13:35;;;;;;;6.00;3.60;;;11.70;99.90;;;;;;4876638;29;20385;-78
2021/12/31 07:16:21;;;;;;;6.60;3.80;;;11.70;99.90;;;;;;4855368;29;20485;-78
2021/12/31 07:19:06;;;;;;;7.70;2.57;;;11.70;99.90;;;;;;4880050;29;20467;-78
2021/12/31 07:21:51;;;;;;;4.17;3.77;;;11.70;99.90;;;;;;4880387;29;20518;-79
2021/12/31 07:24:37;;;;;;;4.60;2.53;;;11.70;99.90;;;;;;4886560;29;20793;-78
2021/12/31 07:27:22;;;;;;;5.50;3.23;;;11.70;99.90;;;;;;4873128;29;20409;-78
2021/12/31 07:30:07;;;;;;;7.43;2.97;;;11.70;99.90;;;;;;4911676;29;20415;-78
2021/12/31 07:32:52;;;;;;;3.07;2.83;;;11.70;99.90;;;;;;4939891;29;20435;-79
2021/12/31 07:35:38;;;;;;;3.10;2.90;;;11.80;99.90;;;;;;4940759;29;20463;-80
2021/12/31 07:38:30;;;;;;;5.27;4.10;;;11.80;99.90;;;;;;4941005;29;20399;-80
2021/12/31 07:41:16;;;;;;;6.53;2.87;;;11.70;99.90;;;;;;4981444;28;20406;-80
2021/12/31 07:44:01;;;;;;;3.07;2.70;;;11.80;99.90;;;;;;4980800;28;20422;-79
2021/12/31 07:46:46;;;;;;;4.90;3.30;;;11.80;99.90;;;;;;4942985;29;20482;-81
2021/12/31 07:49:30;;;;;;;3.83;3.10;;;11.80;99.90;;;;;;4928248;29;20386;-79
2021/12/31 07:52:15;;;;;;;3.80;2.93;;;11.70;99.90;;;;;;4947229;29;20529;-80
2021/12/31 07:55:00;;;;;;;3.37;3.00;;;11.70;99.90;;;;;;4948153;29;20398;-80
2021/12/31 07:57:45;;;;;;;4.50;3.30;;;11.70;99.90;;;;;;4948459;29;20439;-80
2021/12/31 08:00:29;;;;;;;4.47;3.77;;;11.70;99.90;;;;;;4930597;29;20404;-79
2021/12/31 08:03:15;;;;;;;4.20;3.80;;;11.70;99.90;;;;;;4974812;28;20388;-80
2021/12/31 08:05:59;;;;;;;4.20;3.03;;;11.70;99.90;;;;;;4960150;28;20413;-80
2021/12/31 08:08:43;;;;;;;4.80;3.33;;;11.70;99.90;;;;;;4935874;29;20418;-79
2021/12/31 08:11:28;;;;;;;4.23;3.83;;;11.70;99.90;;;;;;4944320;29;20488;-79
2021/12/31 08:14:12;;;;;;;3.00;2.80;;;11.70;99.90;;;;;;4930847;29;20465;-80
2021/12/31 08:16:59;;;;;;;4.70;3.13;;;11.80;99.90;;;;;;4965840;29;20449;-79
2021/12/31 08:19:44;;;;;;;4.27;3.60;;;11.80;99.90;;;;;;4942976;29;20424;-79
2021/12/31 08:22:49;;;;;;;3.77;3.47;;;11.80;99.90;;;;;;4970739;29;20446;-79
2021/12/31 08:25:36;;;;;;;4.77;3.60;;;12.20;99.90;;;;;;4917265;29;20438;-80
2021/12/31 08:28:20;;;;;;;4.13;3.73;;;12.10;99.90;;;;;;4955754;29;20413;-79
2021/12/31 08:31:25;;;;;;;7.60;2.93;;;12.20;99.90;;;;;;4911199;29;20483;-80
2021/12/31 08:34:30;;;;;;;3.80;3.50;;;12.30;99.90;;;;;;4931922;29;20415;-80
2021/12/31 08:37:14;;;;;;;3.53;3.23;;;12.80;99.90;;;;;;4948272;29;20979;-79
2021/12/31 08:40:02;;;;;;;5.17;3.60;;;13.20;99.90;;;;;;4976085;28;20435;-80
2021/12/31 08:43:07;;;;;;;8.77;3.30;;;13.80;99.90;;;;;;4965983;29;20415;-80
2021/12/31 08:45:54;;;;;;;8.37;3.10;;;13.70;99.90;;;;;;4950801;29;20446;-79
2021/12/31 08:48:41;;;;;;;8.87;4.10;;;13.90;99.90;;;;;;4965852;29;20413;-80
2021/12/31 08:51:28;;;;;;;9.23;3.53;;;14.70;99.90;;;;;;4966072;29;20457;-79
2021/12/31 08:54:12;;;;;;;4.20;3.80;;;15.40;99.90;;;;;;4963147;29;20538;-81
2021/12/31 08:57:00;;;;;;;5.63;3.83;;;15.40;99.90;;;;;;4961779;28;20427;-80
2021/12/31 08:59:44;;;;;;;5.50;3.63;;;15.90;99.90;;;;;;4970334;28;20438;-80
2021/12/31 09:02:29;;;;;;;4.53;3.43;;;16.30;99.90;;;;;;4976492;28;20813;-80
2021/12/31 09:05:14;;;;;;;3.83;3.10;;;17.20;99.90;;;;;;4962586;29;20418;-80
2021/12/31 09:08:00;;;;;;;4.17;3.07;;;17.60;99.90;;;;;;4982749;28;20425;-79
2021/12/31 09:10:46;;;;;;;4.03;3.13;;;17.80;99.90;;;;;;4988566;28;20497;-80
2021/12/31 09:13:34;;;;;;;6.47;3.73;;;18.90;99.90;;;;;;4992804;28;20383;-80
2021/12/31 09:16:18;;;;;;;3.43;3.13;;;19.70;99.90;;;;;;5008462;28;20464;-80
2021/12/31 09:19:05;;;;;;;4.60;3.27;;;18.50;99.90;;;;;;5020257;28;20407;-80
2021/12/31 09:21:55;;;;;;;4.57;2.97;;;19.80;99.90;;;;;;5019449;28;20406;-79
2021/12/31 09:24:43;;;;;;;5.67;3.17;;;18.20;99.90;;;;;;4986986;28;20420;-79
2021/12/31 09:27:29;;;;;;;4.00;2.90;;;18.90;99.90;;;;;;5019195;28;20418;-79
2021/12/31 09:30:16;;;;;;;5.37;4.07;;;18.50;99.90;;;;;;4986882;28;20411;-77
2021/12/31 09:33:02;;;;;;;3.03;2.83;;;18.20;99.90;;;;;;5003520;28;20596;-77
2021/12/31 09:35:48;;;;;;;3.10;2.90;;;18.80;99.90;;;;;;5048283;28;20483;-78
2021/12/31 09:38:34;;;;;;;3.00;2.60;;;19.50;99.90;;;;;;4988721;28;20466;-79
2021/12/31 09:41:19;;;;;;;4.53;2.97;;;19.10;99.90;;;;;;4983014;28;20406;-79
2021/12/31 09:44:05;;;;;;;3.50;2.80;;;19.40;99.90;;;;;;4982593;28;20414;-79
2021/12/31 09:46:56;;;;;;;3.33;2.73;;;19.00;99.90;;;;;;4949140;29;20485;-80
2021/12/31 09:49:43;;;;;;;5.20;2.90;;;17.50;99.90;;;;;;4962154;29;20475;-80
2021/12/31 09:52:31;;;;;;;7.80;3.90;;;16.70;99.90;;;;;;4961777;28;20512;-80
2021/12/31 09:55:34;;;;;;;2.50;2.33;;;16.30;99.90;;;;;;4948097;28;20407;-79
2021/12/31 09:58:23;;;;;;;2.67;2.47;;;17.70;99.90;;;;;;4948147;29;20467;-80
2021/12/31 10:01:09;;;;;;;2.27;2.07;;;19.20;99.90;;;;;;4943544;29;20467;-79
2021/12/31 10:03:57;;;;;;;7.00;3.00;;;18.60;99.90;;;;;;4975352;28;20478;-79
2021/12/31 10:07:10;;;;;;;3.70;3.40;;;19.10;99.90;;;;;;4975113;28;20413;-79
2021/12/31 10:10:13;;;;;;;7.53;2.87;;;18.20;99.90;;;;;;4947579;29;20498;-79
2021/12/31 10:12:59;;;;;;;2.87;2.20;;;19.40;99.90;;;;;;4933687;29;20414;-79
2021/12/31 10:15:51;;;;;;;7.60;2.63;;;18.20;99.90;;;;;;4902526;29;20501;-80
2021/12/31 10:18:39;;;;;;;2.20;2.10;;;18.10;99.90;;;;;;4903661;29;20409;-80
2021/12/31 10:21:34;;;;;;;3.20;2.40;;;19.40;99.90;;;;;;4889810;29;20970;-79
2021/12/31 10:24:39;;;;;;;5.63;2.10;;;18.80;99.90;;;;;;4884175;29;20428;-80
2021/12/31 10:27:26;;;;;;;2.20;2.00;;;18.90;99.90;;;;;;4951356;29;20810;-79
2021/12/31 10:30:12;;;;;;;2.20;2.10;;;18.70;99.90;;;;;;4927865;29;20490;-80
2021/12/31 10:32:59;;;;;;;2.20;2.00;;;19.20;99.90;;;;;;4946567;29;20415;-79
2021/12/31 10:35:51;;;;;;;2.93;1.70;;;20.30;99.90;;;;;;4937523;29;20395;-79
2021/12/31 10:38:36;;;;;;;2.00;1.90;;;19.40;99.90;;;;;;4944103;29;20492;-79
2021/12/31 10:41:41;;;;;;;6.83;2.53;;;19.40;99.90;;;;;;4887454;29;20942;-80
2021/12/31 10:44:48;;;;;;;1.80;1.70;;;19.70;99.90;;;;;;4856399;29;20403;-80
2021/12/31 10:47:42;;;;;;;1.40;1.30;;;21.30;99.90;;;;;;4885484;29;20477;-80
2021/12/31 10:50:28;;;;;;;5.60;1.77;;;19.20;99.90;;;;;;4874705;29;20437;-80
2021/12/31 10:53:34;;;;;;;2.13;1.97;;;18.60;99.90;;;;;;4886001;29;20422;-79
2021/12/31 10:56:19;;;;;;;1.73;1.63;;;20.70;99.90;;;;;;4876641;29;20410;-80
2021/12/31 10:59:05;;;;;;;1.70;1.60;;;22.30;99.90;;;;;;4886211;29;20443;-80
2021/12/31 11:02:10;;;;;;;1.40;1.30;;;22.70;99.90;;;;;;4901791;29;20420;-80
2021/12/31 11:04:55;;;;;;;1.60;1.50;;;22.80;99.90;;;;;;4863711;29;20471;-78
2021/12/31 11:07:43;;;;;;;2.20;2.00;;;22.40;99.90;;;;;;4852381;29;20418;-79
2021/12/31 11:10:37;;;;;;;2.13;1.80;;;23.20;99.90;;;;;;4893409;29;20818;-80
2021/12/31 11:13:28;;;;;;;1.70;1.60;;;23.90;99.90;;;;;;4899165;29;20535;-80
2021/12/31 11:16:14;;;;;;;1.63;1.53;;;22.70;99.90;;;;;;4900917;29;20405;-80
2021/12/31 11:19:00;;;;;;;2.07;1.67;;;23.60;99.90;;;;;;4920722;29;20504;-78
2021/12/31 11:22:09;;;;;;;3.03;1.93;;;22.90;99.90;;;;;;4901442;29;20846;-81
2021/12/31 11:25:22;;;;;;;1.50;1.40;;;22.60;99.90;;;;;;4850053;29;20530;-79
2021/12/31 11:28:26;;;;;;;2.13;1.77;;;23.40;99.90;;;;;;4856452;29;20548;-77
2021/12/31 11:31:26;;;;;;;1.40;1.20;;;24.70;99.90;;;;;;4847794;29;20494;-77
2021/12/31 11:34:14;;;;;;;1.63;1.53;;;24.80;99.90;;;;;;4886269;29;20453;-78
2021/12/31 11:37:12;;;;;;;1.53;1.40;;;24.90;99.90;;;;;;4885379;29;20404;-80
2021/12/31 11:40:30;;;;;;;2.00;1.77;;;23.50;99.90;;;;;;4879224;29;20425;-78
2021/12/31 11:43:20;;;;;;;1.40;1.30;;;27.20;98.50;;;;;;4906667;29;20916;-78
2021/12/31 11:46:28;;;;;;;1.97;1.77;;;29.10;93.90;;;;;;4882851;29;20474;-78
2021/12/31 11:49:26;;;;;;;3.90;1.40;;;27.00;92.50;;;;;;4907074;29;20424;-80
2021/12/31 11:52:20;;;;;;;1.60;1.50;;;26.30;93.40;;;;;;4853553;29;20403;-81
2021/12/31 11:55:16;;;;;;;1.60;1.50;;;27.40;93.30;;;;;;4849112;29;20462;-79
2021/12/31 11:58:41;;;;;;;5.23;2.00;;;26.90;93.30;;;;;;4876357;29;20457;-78
2021/12/31 12:01:47;;;;;;;2.53;2.00;;;26.60;94.50;;;;;;4905114;29;20540;-79
2021/12/31 12:04:40;;;;;;;1.80;1.70;;;26.40;93.20;;;;;;4892185;29;20492;-79
2021/12/31 12:07:38;;;;;;;7.13;1.87;;;27.20;93.60;;;;;;4890981;29;20473;-79
2021/12/31 12:10:27;;;;;;;2.30;1.70;;;25.50;91.20;;;;;;4885723;29;20433;-78
2021/12/31 12:13:25;;;;;;;2.43;1.70;;;24.30;96.90;;;;;;4863853;29;20502;-78
2021/12/31 12:16:09;;;;;;;1.63;1.53;;;21.20;99.60;;;;;;4869524;29;20411;-78
2021/12/31 12:18:57;;;;;;;2.10;1.90;;;21.10;99.90;;;;;;4862476;29;20415;-79
2021/12/31 12:21:51;;;;;;;2.07;1.70;;;22.70;99.90;;;;;;4846727;29;20918;-78
2021/12/31 12:24:38;;;;;;;2.43;2.07;;;21.80;99.90;;;;;;4873167;29;20508;-78
2021/12/31 12:27:27;;;;;;;3.20;2.90;;;20.80;99.90;;;;;;4896999;29;20814;-78
2021/12/31 12:30:12;;;;;;;2.50;1.90;;;21.40;99.90;;;;;;4872665;29;20430;-78
2021/12/31 12:33:19;;;;;;;1.77;1.57;;;21.60;99.90;;;;;;4857584;29;20425;-78
2021/12/31 12:36:07;;;;;;;2.45;2.25;;;19.60;99.90;;;;;;4834281;29;20436;-78
2021/12/31 12:39:01;;;;;;;1.83;1.73;;;19.40;99.90;;;;;;4846267;29;20264;-78
2021/12/31 12:41:49;;;;;;;3.33;1.70;;;20.50;99.90;;;;;;4847164;29;20538;-78
2021/12/31 12:44:34;;;;;;;2.30;1.70;;;19.80;99.90;;;;;;4861438;29;20818;-77
2021/12/31 12:47:21;;;;;;;2.70;2.07;;;18.70;99.90;;;;;;4849326;29;20527;-78
2021/12/31 12:50:09;;;;;;;1.97;1.60;;;18.50;99.90;;;;;;4861674;29;20504;-78
2021/12/31 12:52:56;;;;;;;2.47;2.27;;;18.40;99.90;;;;;;4855398;29;20418;-78
2021/12/31 12:55:43;;;;;;;2.03;1.80;;;17.60;99.90;;;;;;4900892;29;20478;-77
2021/12/31 12:58:34;;;;;;;2.30;2.10;;;17.30;99.90;;;;;;4874238;29;20438;-78
2021/12/31 13:01:34;;;;;;;4.63;2.60;;;17.20;99.90;;;;;;4899072;29;20448;-78
2021/12/31 13:04:22;;;;;;;2.50;2.27;;;17.80;99.90;;;;;;4888342;29;20417;-79
2021/12/31 13:07:12;;;;;;;2.00;1.87;;;17.80;99.90;;;;;;4921940;29;20472;-78
2021/12/31 13:10:07;;;;;;;4.77;2.17;;;17.00;99.90;;;;;;4938156;29;20419;-78
2021/12/31 13:12:53;;;;;;;2.40;2.20;;;17.30;99.90;;;;;;4936200;28;20415;-79
2021/12/31 13:15:38;;;;;;;1.90;1.80;;;17.00;99.90;;;;;;4981347;28;20444;-79
2021/12/31 13:18:27;;;;;;;3.20;1.90;;;16.20;99.90;;;;;;5002027;28;20393;-78
2021/12/31 13:21:12;;;;;;;3.47;1.90;;;16.40;99.90;;;;;;5058898;28;20957;-78
2021/12/31 13:23:58;;;;;;;1.63;1.53;;;16.60;99.90;;;;;;5032408;28;20496;-79
2021/12/31 13:26:51;;;;;;;2.07;1.87;;;16.30;99.90;;;;;;5030995;28;21002;-78
2021/12/31 13:29:41;;;;;;;2.00;1.80;;;16.30;99.90;;;;;;5024831;28;20833;-77
2021/12/31 13:32:39;;;;;;;3.10;2.73;;;15.80;99.90;;;;;;5043609;28;20410;-78
2021/12/31 13:35:24;;;;;;;2.53;1.63;;;16.30;99.90;;;;;;5024124;28;20895;-78
2021/12/31 13:38:09;;;;;;;2.20;2.00;;;15.90;99.90;;;;;;5044106;28;20406;-78
2021/12/31 13:40:55;;;;;;;4.10;2.23;;;16.00;99.90;;;;;;5029174;28;20574;-77
2021/12/31 13:43:40;;;;;;;2.03;1.83;;;16.20;99.90;;;;;;5017548;28;20771;-78
2021/12/31 13:46:37;;;;;;;1.67;1.47;;;16.40;99.90;;;;;;5044470;28;21069;-78
2021/12/31 13:49:23;;;;;;;2.73;1.93;;;16.40;99.90;;;;;;5016739;28;20394;-78
2021/12/31 13:52:24;;;;;;;1.57;1.47;;;16.30;99.90;;;;;;5043860;28;20398;-78
2021/12/31 13:55:22;;;;;;;3.20;2.40;;;16.20;99.90;;;;;;5031182;28;20452;-78
2021/12/31 13:58:07;;;;;;;3.40;1.90;;;16.00;99.90;;;;;;5057612;28;20489;-79
2021/12/31 14:00:52;;;;;;;2.67;2.10;;;15.30;99.90;;;;;;5038927;28;20458;-78
2021/12/31 14:03:37;;;;;;;2.10;1.90;;;15.50;99.90;;;;;;5044810;28;20414;-79
2021/12/31 14:06:24;;;;;;;2.77;2.33;;;15.70;99.90;;;;;;5038418;28;20778;-78
2021/12/31 14:09:09;;;;;;;3.27;2.23;;;15.80;99.90;;;;;;5046395;28;20406;-79
2021/12/31 14:11:56;;;;;;;3.37;2.10;;;15.70;99.90;;;;;;5045887;28;20398;-79
2021/12/31 14:14:42;;;;;;;2.80;2.00;;;15.40;99.90;;;;;;5007638;28;20882;-79
2021/12/31 14:17:26;;;;;;;1.80;1.70;;;15.20;99.90;;;;;;5007712;28;20424;-79
2021/12/31 14:20:13;;;;;;;3.57;2.03;;;14.90;99.90;;;;;;4991282;28;20483;-78
2021/12/31 14:22:58;;;;;;;2.00;1.83;;;14.60;99.90;;;;;;4984606;28;20436;-77
2021/12/31 14:25:45;;;;;;;2.23;2.03;;;14.70;99.90;;;;;;4987220;28;20732;-79
2021/12/31 14:28:29;;;;;;;1.80;1.70;;;14.80;99.90;;;;;;4964889;28;20505;-78
2021/12/31 14:31:16;;;;;;;2.50;1.63;;;14.60;99.90;;;;;;4974295;28;20412;-76
2021/12/31 14:34:01;;;;;;;2.13;1.60;;;14.50;99.90;;;;;;5002681;28;20395;-79
2021/12/31 14:36:58;;;;;;;2.40;2.20;;;14.70;99.90;;;;;;5002588;28;20440;-78
2021/12/31 14:39:51;;;;;;;2.37;2.20;;;14.60;99.90;;;;;;4975546;28;20548;-78